EFKK/KOK METAR and TAF weather

Enter ICAO airport designator
Station Type Date Time Source
EFKK METAR 2018/01/24 07:20 UTC NOAA

EFKK 240720Z AUTO 14012KT 090V170 2200 -SN FEW006 SCT011 BKN014 OVC018 M02/M03 Q0998


Station Type Date Time Source
EFKK Decoded METAR 2018/01/24 07:20 UTC NOAA

Kruunupyy, Finland (EFKK) 63-43N 023-09E
Jan 24, 2018 - 02:20 AM EST / 2018.01.24 0720 UTC
Wind: from the SE (140 degrees) at 14 MPH (12 KT) (direction variable):0
Visibility: 1 mile(s):0
Sky conditions: overcast
Weather: light snow
Temperature: 28 F (-2 C)
Windchill: 17 F (-8 C):1
Dew Point: 26 F (-3 C)
Relative Humidity: 92%
Pressure (altimeter): 29.47 in. Hg (0998 hPa)
ob: EFKK 240720Z AUTO 14012KT 090V170 2200 -SN FEW006 SCT011 BKN014 OVC018 M02/M03 Q0998
cycle: 7

Station Type Date Time Source
EFKK TAF 2013/12/22 09:42 UTC NOAA

TAF EFKK 220834Z 2209/2221 20009KT 9999 OVC007
TEMPO 2209/2211 6000 -DZ BKN003
BECMG 2211/2213 6000 RA
TEMPO 2213/2221 BKN011


Example: see airport list